sensor_id;sensor_type;location;lat;lon;timestamp;P1;durP1;ratioP1;P2;durP2;ratioP2
3299;SDS011;1662;49.310;8.134;2023-12-20T00:01:01;0.73;;;0.73;;
3299;SDS011;1662;49.310;8.134;2023-12-20T00:03:27;0.60;;;0.60;;
3299;SDS011;1662;49.310;8.134;2023-12-20T00:05:52;0.70;;;0.70;;
3299;SDS011;1662;49.310;8.134;2023-12-20T00:08:18;0.70;;;0.70;;
3299;SDS011;1662;49.310;8.134;2023-12-20T00:10:44;0.80;;;0.80;;
3299;SDS011;1662;49.310;8.134;2023-12-20T00:13:10;0.90;;;0.90;;
3299;SDS011;1662;49.310;8.134;2023-12-20T00:15:38;0.80;;;0.80;;
3299;SDS011;1662;49.310;8.134;2023-12-20T00:18:04;0.63;;;0.63;;
3299;SDS011;1662;49.310;8.134;2023-12-20T00:20:30;0.93;;;0.93;;
3299;SDS011;1662;49.310;8.134;2023-12-20T00:22:56;0.70;;;0.70;;
3299;SDS011;1662;49.310;8.134;2023-12-20T00:25:25;0.70;;;0.70;;
3299;SDS011;1662;49.310;8.134;2023-12-20T00:27:51;0.80;;;0.80;;
3299;SDS011;1662;49.310;8.134;2023-12-20T00:30:17;0.70;;;0.70;;
3299;SDS011;1662;49.310;8.134;2023-12-20T00:32:45;0.93;;;0.93;;
3299;SDS011;1662;49.310;8.134;2023-12-20T00:35:16;1.00;;;1.00;;
3299;SDS011;1662;49.310;8.134;2023-12-20T00:37:42;0.90;;;0.80;;
3299;SDS011;1662;49.310;8.134;2023-12-20T00:40:08;0.80;;;0.80;;
3299;SDS011;1662;49.310;8.134;2023-12-20T00:42:37;0.90;;;0.90;;
3299;SDS011;1662;49.310;8.134;2023-12-20T00:45:02;0.80;;;0.80;;
3299;SDS011;1662;49.310;8.134;2023-12-20T00:47:29;1.00;;;1.00;;
3299;SDS011;1662;49.310;8.134;2023-12-20T00:49:55;1.00;;;1.00;;
3299;SDS011;1662;49.310;8.134;2023-12-20T00:52:21;0.90;;;0.90;;
3299;SDS011;1662;49.310;8.134;2023-12-20T00:54:48;0.80;;;0.80;;
3299;SDS011;1662;49.310;8.134;2023-12-20T00:57:13;0.90;;;0.90;;
3299;SDS011;1662;49.310;8.134;2023-12-20T00:59:40;0.70;;;0.70;;
3299;SDS011;1662;49.310;8.134;2023-12-20T01:02:08;0.90;;;0.90;;
3299;SDS011;1662;49.310;8.134;2023-12-20T01:04:34;0.80;;;0.80;;
3299;SDS011;1662;49.310;8.134;2023-12-20T01:07:00;0.80;;;0.80;;
3299;SDS011;1662;49.310;8.134;2023-12-20T01:09:26;0.70;;;0.70;;
3299;SDS011;1662;49.310;8.134;2023-12-20T01:11:52;0.80;;;0.70;;
3299;SDS011;1662;49.310;8.134;2023-12-20T01:14:18;0.90;;;0.90;;
3299;SDS011;1662;49.310;8.134;2023-12-20T01:16:44;0.80;;;0.80;;
3299;SDS011;1662;49.310;8.134;2023-12-20T01:19:10;0.70;;;0.70;;
3299;SDS011;1662;49.310;8.134;2023-12-20T01:21:35;0.80;;;0.80;;
3299;SDS011;1662;49.310;8.134;2023-12-20T01:24:01;0.70;;;0.70;;
3299;SDS011;1662;49.310;8.134;2023-12-20T01:26:26;1.00;;;1.00;;
3299;SDS011;1662;49.310;8.134;2023-12-20T01:28:52;0.80;;;0.80;;
3299;SDS011;1662;49.310;8.134;2023-12-20T01:31:18;0.80;;;0.80;;
3299;SDS011;1662;49.310;8.134;2023-12-20T01:33:44;0.87;;;0.87;;
3299;SDS011;1662;49.310;8.134;2023-12-20T01:36:09;1.20;;;1.10;;
3299;SDS011;1662;49.310;8.134;2023-12-20T01:38:36;0.63;;;0.63;;
3299;SDS011;1662;49.310;8.134;2023-12-20T01:41:02;0.90;;;0.90;;
3299;SDS011;1662;49.310;8.134;2023-12-20T01:43:29;0.77;;;0.77;;
3299;SDS011;1662;49.310;8.134;2023-12-20T01:45:55;0.70;;;0.70;;
3299;SDS011;1662;49.310;8.134;2023-12-20T01:48:22;0.80;;;0.80;;
3299;SDS011;1662;49.310;8.134;2023-12-20T01:50:49;1.00;;;1.00;;
3299;SDS011;1662;49.310;8.134;2023-12-20T01:53:16;0.90;;;0.90;;
3299;SDS011;1662;49.310;8.134;2023-12-20T01:55:44;1.30;;;1.20;;
3299;SDS011;1662;49.310;8.134;2023-12-20T01:58:09;0.90;;;0.90;;
3299;SDS011;1662;49.310;8.134;2023-12-20T02:00:37;0.87;;;0.87;;
3299;SDS011;1662;49.310;8.134;2023-12-20T02:03:03;0.77;;;0.77;;
3299;SDS011;1662;49.310;8.134;2023-12-20T02:05:32;0.80;;;0.80;;
3299;SDS011;1662;49.310;8.134;2023-12-20T02:07:58;0.70;;;0.70;;
3299;SDS011;1662;49.310;8.134;2023-12-20T02:10:24;1.03;;;0.97;;
3299;SDS011;1662;49.310;8.134;2023-12-20T02:12:50;1.00;;;1.00;;
3299;SDS011;1662;49.310;8.134;2023-12-20T02:15:16;0.70;;;0.70;;
3299;SDS011;1662;49.310;8.134;2023-12-20T02:17:42;0.90;;;0.90;;
3299;SDS011;1662;49.310;8.134;2023-12-20T02:20:08;3.23;;;3.03;;
3299;SDS011;1662;49.310;8.134;2023-12-20T02:22:34;7.10;;;5.87;;
3299;SDS011;1662;49.310;8.134;2023-12-20T02:25:00;1.27;;;0.90;;
3299;SDS011;1662;49.310;8.134;2023-12-20T02:27:26;1.03;;;1.03;;
3299;SDS011;1662;49.310;8.134;2023-12-20T02:29:53;2.10;;;2.00;;
3299;SDS011;1662;49.310;8.134;2023-12-20T02:32:19;0.93;;;0.93;;
3299;SDS011;1662;49.310;8.134;2023-12-20T02:34:47;1.00;;;1.00;;
3299;SDS011;1662;49.310;8.134;2023-12-20T02:37:13;0.70;;;0.70;;
3299;SDS011;1662;49.310;8.134;2023-12-20T02:39:39;0.90;;;0.90;;
3299;SDS011;1662;49.310;8.134;2023-12-20T02:42:04;0.80;;;0.80;;
3299;SDS011;1662;49.310;8.134;2023-12-20T02:44:32;0.93;;;0.90;;
3299;SDS011;1662;49.310;8.134;2023-12-20T02:46:58;5.33;;;1.30;;
3299;SDS011;1662;49.310;8.134;2023-12-20T02:49:23;1.07;;;1.07;;
3299;SDS011;1662;49.310;8.134;2023-12-20T02:51:49;1.53;;;1.43;;
3299;SDS011;1662;49.310;8.134;2023-12-20T02:54:17;0.80;;;0.80;;
3299;SDS011;1662;49.310;8.134;2023-12-20T02:56:42;0.90;;;0.90;;
3299;SDS011;1662;49.310;8.134;2023-12-20T02:59:08;0.80;;;0.80;;
3299;SDS011;1662;49.310;8.134;2023-12-20T03:01:34;0.70;;;0.70;;
3299;SDS011;1662;49.310;8.134;2023-12-20T03:04:00;1.00;;;1.00;;
3299;SDS011;1662;49.310;8.134;2023-12-20T03:06:28;0.83;;;0.83;;
3299;SDS011;1662;49.310;8.134;2023-12-20T03:08:53;1.07;;;1.07;;
3299;SDS011;1662;49.310;8.134;2023-12-20T03:11:19;0.80;;;0.80;;
3299;SDS011;1662;49.310;8.134;2023-12-20T03:13:44;0.90;;;0.90;;
3299;SDS011;1662;49.310;8.134;2023-12-20T03:16:10;0.87;;;0.87;;
3299;SDS011;1662;49.310;8.134;2023-12-20T03:18:37;0.93;;;0.93;;
3299;SDS011;1662;49.310;8.134;2023-12-20T03:21:02;0.90;;;0.90;;
3299;SDS011;1662;49.310;8.134;2023-12-20T03:23:29;0.80;;;0.80;;
3299;SDS011;1662;49.310;8.134;2023-12-20T03:25:55;1.23;;;1.23;;
3299;SDS011;1662;49.310;8.134;2023-12-20T03:28:21;1.00;;;1.00;;
3299;SDS011;1662;49.310;8.134;2023-12-20T03:30:50;1.00;;;1.00;;
3299;SDS011;1662;49.310;8.134;2023-12-20T03:33:15;1.33;;;1.33;;
3299;SDS011;1662;49.310;8.134;2023-12-20T03:35:43;1.30;;;1.30;;
3299;SDS011;1662;49.310;8.134;2023-12-20T03:38:09;1.60;;;1.50;;
3299;SDS011;1662;49.310;8.134;2023-12-20T03:40:34;1.30;;;1.20;;
3299;SDS011;1662;49.310;8.134;2023-12-20T03:43:00;1.47;;;1.37;;
3299;SDS011;1662;49.310;8.134;2023-12-20T03:45:28;1.40;;;1.40;;
3299;SDS011;1662;49.310;8.134;2023-12-20T03:47:53;1.50;;;1.40;;
3299;SDS011;1662;49.310;8.134;2023-12-20T03:50:22;1.27;;;1.27;;
3299;SDS011;1662;49.310;8.134;2023-12-20T03:52:47;1.43;;;1.30;;
3299;SDS011;1662;49.310;8.134;2023-12-20T03:55:13;1.80;;;1.70;;
3299;SDS011;1662;49.310;8.134;2023-12-20T03:57:39;1.80;;;1.77;;
3299;SDS011;1662;49.310;8.134;2023-12-20T04:00:07;1.33;;;1.23;;
3299;SDS011;1662;49.310;8.134;2023-12-20T04:02:35;2.03;;;1.93;;
3299;SDS011;1662;49.310;8.134;2023-12-20T04:05:10;1.60;;;1.50;;
3299;SDS011;1662;49.310;8.134;2023-12-20T04:07:38;1.80;;;1.70;;
3299;SDS011;1662;49.310;8.134;2023-12-20T04:10:04;1.60;;;1.60;;
3299;SDS011;1662;49.310;8.134;2023-12-20T04:12:30;1.40;;;1.40;;
3299;SDS011;1662;49.310;8.134;2023-12-20T04:14:57;1.63;;;1.57;;
3299;SDS011;1662;49.310;8.134;2023-12-20T04:17:22;1.70;;;1.70;;
3299;SDS011;1662;49.310;8.134;2023-12-20T04:19:48;2.10;;;2.00;;
3299;SDS011;1662;49.310;8.134;2023-12-20T04:22:15;1.83;;;1.73;;
3299;SDS011;1662;49.310;8.134;2023-12-20T04:24:43;1.93;;;1.83;;
3299;SDS011;1662;49.310;8.134;2023-12-20T04:27:12;2.07;;;1.97;;
3299;SDS011;1662;49.310;8.134;2023-12-20T04:29:38;2.00;;;1.90;;
3299;SDS011;1662;49.310;8.134;2023-12-20T04:32:04;2.10;;;2.00;;
3299;SDS011;1662;49.310;8.134;2023-12-20T04:34:30;1.90;;;1.80;;
3299;SDS011;1662;49.310;8.134;2023-12-20T04:36:55;1.83;;;1.73;;
3299;SDS011;1662;49.310;8.134;2023-12-20T04:39:21;2.47;;;2.37;;
3299;SDS011;1662;49.310;8.134;2023-12-20T04:41:46;1.77;;;1.67;;
3299;SDS011;1662;49.310;8.134;2023-12-20T04:44:15;2.40;;;2.30;;
3299;SDS011;1662;49.310;8.134;2023-12-20T04:46:41;2.00;;;1.90;;
3299;SDS011;1662;49.310;8.134;2023-12-20T04:49:09;1.93;;;1.83;;
3299;SDS011;1662;49.310;8.134;2023-12-20T04:51:34;2.10;;;2.00;;
3299;SDS011;1662;49.310;8.134;2023-12-20T04:54:00;2.00;;;1.90;;
3299;SDS011;1662;49.310;8.134;2023-12-20T04:56:28;2.30;;;2.20;;
3299;SDS011;1662;49.310;8.134;2023-12-20T04:58:54;2.43;;;2.33;;
3299;SDS011;1662;49.310;8.134;2023-12-20T05:01:19;1.43;;;1.43;;
3299;SDS011;1662;49.310;8.134;2023-12-20T05:03:46;2.23;;;2.13;;
3299;SDS011;1662;49.310;8.134;2023-12-20T05:06:12;1.70;;;1.60;;
3299;SDS011;1662;49.310;8.134;2023-12-20T05:08:37;1.83;;;1.73;;
3299;SDS011;1662;49.310;8.134;2023-12-20T05:11:05;1.63;;;1.63;;
3299;SDS011;1662;49.310;8.134;2023-12-20T05:13:31;1.70;;;1.60;;
3299;SDS011;1662;49.310;8.134;2023-12-20T05:15:57;1.23;;;1.23;;
3299;SDS011;1662;49.310;8.134;2023-12-20T05:18:24;1.90;;;1.80;;
3299;SDS011;1662;49.310;8.134;2023-12-20T05:20:53;1.40;;;1.30;;
3299;SDS011;1662;49.310;8.134;2023-12-20T05:23:19;1.40;;;1.40;;
3299;SDS011;1662;49.310;8.134;2023-12-20T05:25:45;1.80;;;1.70;;
3299;SDS011;1662;49.310;8.134;2023-12-20T05:28:11;1.60;;;1.50;;
3299;SDS011;1662;49.310;8.134;2023-12-20T05:30:38;1.87;;;1.77;;
3299;SDS011;1662;49.310;8.134;2023-12-20T05:33:04;1.90;;;1.80;;
3299;SDS011;1662;49.310;8.134;2023-12-20T05:35:30;1.97;;;1.87;;
3299;SDS011;1662;49.310;8.134;2023-12-20T05:37:55;1.97;;;1.87;;
3299;SDS011;1662;49.310;8.134;2023-12-20T05:40:21;2.00;;;1.90;;
3299;SDS011;1662;49.310;8.134;2023-12-20T05:42:46;1.83;;;1.70;;
3299;SDS011;1662;49.310;8.134;2023-12-20T05:45:14;2.40;;;2.30;;
3299;SDS011;1662;49.310;8.134;2023-12-20T05:47:40;2.10;;;2.00;;
3299;SDS011;1662;49.310;8.134;2023-12-20T05:50:05;2.37;;;2.27;;
3299;SDS011;1662;49.310;8.134;2023-12-20T05:52:31;2.60;;;2.40;;
3299;SDS011;1662;49.310;8.134;2023-12-20T05:54:57;2.23;;;2.13;;
3299;SDS011;1662;49.310;8.134;2023-12-20T05:57:26;2.60;;;2.50;;
3299;SDS011;1662;49.310;8.134;2023-12-20T05:59:52;4.63;;;2.57;;
3299;SDS011;1662;49.310;8.134;2023-12-20T06:02:17;2.57;;;2.47;;
3299;SDS011;1662;49.310;8.134;2023-12-20T06:04:43;2.60;;;2.40;;
3299;SDS011;1662;49.310;8.134;2023-12-20T06:07:11;2.70;;;2.60;;
3299;SDS011;1662;49.310;8.134;2023-12-20T06:09:37;2.13;;;2.03;;
3299;SDS011;1662;49.310;8.134;2023-12-20T06:12:03;2.63;;;2.53;;
3299;SDS011;1662;49.310;8.134;2023-12-20T06:14:29;2.77;;;2.67;;
3299;SDS011;1662;49.310;8.134;2023-12-20T06:16:55;2.67;;;2.57;;
3299;SDS011;1662;49.310;8.134;2023-12-20T06:19:22;2.70;;;2.53;;
3299;SDS011;1662;49.310;8.134;2023-12-20T06:21:47;2.57;;;2.47;;
3299;SDS011;1662;49.310;8.134;2023-12-20T06:24:13;3.17;;;2.97;;
3299;SDS011;1662;49.310;8.134;2023-12-20T06:26:39;2.90;;;2.80;;
3299;SDS011;1662;49.310;8.134;2023-12-20T06:29:05;2.80;;;2.60;;
3299;SDS011;1662;49.310;8.134;2023-12-20T06:31:30;3.40;;;3.20;;
3299;SDS011;1662;49.310;8.134;2023-12-20T06:33:58;6.57;;;2.90;;
3299;SDS011;1662;49.310;8.134;2023-12-20T06:36:24;2.93;;;2.70;;
3299;SDS011;1662;49.310;8.134;2023-12-20T06:38:53;3.10;;;2.90;;
3299;SDS011;1662;49.310;8.134;2023-12-20T06:41:18;2.90;;;2.70;;
3299;SDS011;1662;49.310;8.134;2023-12-20T06:43:44;3.00;;;2.57;;
3299;SDS011;1662;49.310;8.134;2023-12-20T06:46:10;2.40;;;2.30;;
3299;SDS011;1662;49.310;8.134;2023-12-20T06:48:35;2.70;;;2.60;;
3299;SDS011;1662;49.310;8.134;2023-12-20T06:51:01;2.73;;;2.53;;
3299;SDS011;1662;49.310;8.134;2023-12-20T06:53:27;2.97;;;2.73;;
3299;SDS011;1662;49.310;8.134;2023-12-20T06:55:55;2.80;;;2.70;;
3299;SDS011;1662;49.310;8.134;2023-12-20T06:58:21;3.07;;;2.87;;
3299;SDS011;1662;49.310;8.134;2023-12-20T07:00:48;2.90;;;2.63;;
3299;SDS011;1662;49.310;8.134;2023-12-20T07:03:14;4.43;;;3.30;;
3299;SDS011;1662;49.310;8.134;2023-12-20T07:05:39;5.50;;;2.90;;
3299;SDS011;1662;49.310;8.134;2023-12-20T07:08:05;8.07;;;2.70;;
3299;SDS011;1662;49.310;8.134;2023-12-20T07:10:31;2.50;;;2.40;;
3299;SDS011;1662;49.310;8.134;2023-12-20T07:12:57;2.40;;;2.20;;
3299;SDS011;1662;49.310;8.134;2023-12-20T07:15:28;4.60;;;2.30;;
3299;SDS011;1662;49.310;8.134;2023-12-20T07:17:54;2.30;;;2.10;;
3299;SDS011;1662;49.310;8.134;2023-12-20T07:20:20;2.23;;;2.10;;
3299;SDS011;1662;49.310;8.134;2023-12-20T07:22:45;2.60;;;1.90;;
3299;SDS011;1662;49.310;8.134;2023-12-20T07:25:15;2.33;;;2.23;;
3299;SDS011;1662;49.310;8.134;2023-12-20T07:27:41;2.90;;;2.33;;
3299;SDS011;1662;49.310;8.134;2023-12-20T07:30:09;5.40;;;2.90;;
3299;SDS011;1662;49.310;8.134;2023-12-20T07:32:35;4.83;;;2.50;;
3299;SDS011;1662;49.310;8.134;2023-12-20T07:35:01;6.03;;;3.60;;
3299;SDS011;1662;49.310;8.134;2023-12-20T07:37:28;20.23;;;12.90;;
3299;SDS011;1662;49.310;8.134;2023-12-20T07:39:53;5.60;;;3.67;;
3299;SDS011;1662;49.310;8.134;2023-12-20T07:42:19;2.97;;;2.73;;
3299;SDS011;1662;49.310;8.134;2023-12-20T07:44:44;3.00;;;2.80;;
3299;SDS011;1662;49.310;8.134;2023-12-20T07:47:10;3.63;;;3.33;;
3299;SDS011;1662;49.310;8.134;2023-12-20T07:49:40;3.97;;;3.67;;
3299;SDS011;1662;49.310;8.134;2023-12-20T07:52:08;4.53;;;3.37;;
3299;SDS011;1662;49.310;8.134;2023-12-20T07:54:34;3.63;;;3.30;;
3299;SDS011;1662;49.310;8.134;2023-12-20T07:56:59;4.40;;;3.23;;
3299;SDS011;1662;49.310;8.134;2023-12-20T07:59:28;5.43;;;4.17;;
3299;SDS011;1662;49.310;8.134;2023-12-20T08:01:55;16.30;;;10.60;;
3299;SDS011;1662;49.310;8.134;2023-12-20T08:04:20;6.27;;;5.23;;
3299;SDS011;1662;49.310;8.134;2023-12-20T08:06:46;10.23;;;5.30;;
3299;SDS011;1662;49.310;8.134;2023-12-20T08:09:11;3.17;;;2.83;;
3299;SDS011;1662;49.310;8.134;2023-12-20T08:11:37;5.50;;;3.20;;
3299;SDS011;1662;49.310;8.134;2023-12-20T08:14:03;2.80;;;2.70;;
3299;SDS011;1662;49.310;8.134;2023-12-20T08:16:28;2.33;;;2.23;;
3299;SDS011;1662;49.310;8.134;2023-12-20T08:18:56;2.50;;;2.40;;
3299;SDS011;1662;49.310;8.134;2023-12-20T08:21:22;4.50;;;2.97;;
3299;SDS011;1662;49.310;8.134;2023-12-20T08:23:50;3.07;;;2.80;;
3299;SDS011;1662;49.310;8.134;2023-12-20T08:26:18;3.57;;;3.27;;
3299;SDS011;1662;49.310;8.134;2023-12-20T08:28:47;8.30;;;3.33;;
3299;SDS011;1662;49.310;8.134;2023-12-20T08:31:13;2.60;;;2.40;;
3299;SDS011;1662;49.310;8.134;2023-12-20T08:33:41;5.78;;;3.00;;
3299;SDS011;1662;49.310;8.134;2023-12-20T08:36:08;3.65;;;2.35;;
3299;SDS011;1662;49.310;8.134;2023-12-20T08:38:36;2.40;;;2.27;;
3299;SDS011;1662;49.310;8.134;2023-12-20T08:41:02;3.33;;;3.03;;
3299;SDS011;1662;49.310;8.134;2023-12-20T08:43:30;7.67;;;2.57;;
3299;SDS011;1662;49.310;8.134;2023-12-20T08:46:05;3.50;;;2.70;;
3299;SDS011;1662;49.310;8.134;2023-12-20T08:48:31;4.60;;;2.33;;
3299;SDS011;1662;49.310;8.134;2023-12-20T08:50:56;11.93;;;3.10;;
3299;SDS011;1662;49.310;8.134;2023-12-20T08:53:22;5.53;;;2.90;;
3299;SDS011;1662;49.310;8.134;2023-12-20T08:55:48;6.17;;;3.40;;
3299;SDS011;1662;49.310;8.134;2023-12-20T08:58:13;4.97;;;1.97;;
3299;SDS011;1662;49.310;8.134;2023-12-20T09:00:39;4.87;;;2.80;;
3299;SDS011;1662;49.310;8.134;2023-12-20T09:03:09;3.77;;;3.00;;
3299;SDS011;1662;49.310;8.134;2023-12-20T09:05:34;10.20;;;2.83;;
3299;SDS011;1662;49.310;8.134;2023-12-20T09:08:00;3.03;;;2.20;;
3299;SDS011;1662;49.310;8.134;2023-12-20T09:10:25;2.50;;;2.10;;
3299;SDS011;1662;49.310;8.134;2023-12-20T09:12:51;2.60;;;2.33;;
3299;SDS011;1662;49.310;8.134;2023-12-20T09:15:25;3.63;;;2.23;;
3299;SDS011;1662;49.310;8.134;2023-12-20T09:17:52;2.10;;;1.90;;
3299;SDS011;1662;49.310;8.134;2023-12-20T09:20:18;14.33;;;3.80;;
3299;SDS011;1662;49.310;8.134;2023-12-20T09:22:44;6.23;;;2.60;;
3299;SDS011;1662;49.310;8.134;2023-12-20T09:25:10;4.67;;;2.13;;
3299;SDS011;1662;49.310;8.134;2023-12-20T09:27:37;12.67;;;3.27;;
3299;SDS011;1662;49.310;8.134;2023-12-20T09:30:03;4.10;;;2.27;;
3299;SDS011;1662;49.310;8.134;2023-12-20T09:32:32;4.63;;;2.50;;
3299;SDS011;1662;49.310;8.134;2023-12-20T09:34:58;5.70;;;2.80;;
3299;SDS011;1662;49.310;8.134;2023-12-20T09:37:27;4.17;;;2.33;;
3299;SDS011;1662;49.310;8.134;2023-12-20T09:39:53;4.63;;;2.73;;
3299;SDS011;1662;49.310;8.134;2023-12-20T09:43:04;3.13;;;2.50;;
3299;SDS011;1662;49.310;8.134;2023-12-20T09:45:13;3.03;;;2.57;;
3299;SDS011;1662;49.310;8.134;2023-12-20T09:47:42;3.27;;;2.33;;
3299;SDS011;1662;49.310;8.134;2023-12-20T09:50:08;5.10;;;2.60;;
3299;SDS011;1662;49.310;8.134;2023-12-20T09:52:35;5.33;;;2.10;;
3299;SDS011;1662;49.310;8.134;2023-12-20T09:55:03;5.93;;;2.43;;
3299;SDS011;1662;49.310;8.134;2023-12-20T09:57:31;8.40;;;2.50;;
3299;SDS011;1662;49.310;8.134;2023-12-20T09:59:57;8.23;;;2.90;;
3299;SDS011;1662;49.310;8.134;2023-12-20T10:02:24;3.53;;;2.80;;
3299;SDS011;1662;49.310;8.134;2023-12-20T10:04:54;3.67;;;3.20;;
3299;SDS011;1662;49.310;8.134;2023-12-20T10:07:20;4.10;;;3.70;;
3299;SDS011;1662;49.310;8.134;2023-12-20T10:09:47;3.67;;;2.43;;
3299;SDS011;1662;49.310;8.134;2023-12-20T10:12:13;3.23;;;3.07;;
3299;SDS011;1662;49.310;8.134;2023-12-20T10:14:38;8.23;;;2.87;;
3299;SDS011;1662;49.310;8.134;2023-12-20T10:17:05;4.23;;;2.40;;
3299;SDS011;1662;49.310;8.134;2023-12-20T10:19:31;7.63;;;2.27;;
3299;SDS011;1662;49.310;8.134;2023-12-20T10:22:01;5.60;;;2.50;;
3299;SDS011;1662;49.310;8.134;2023-12-20T10:24:32;9.30;;;3.03;;
3299;SDS011;1662;49.310;8.134;2023-12-20T10:27:01;8.37;;;2.83;;
3299;SDS011;1662;49.310;8.134;2023-12-20T10:29:38;2.80;;;2.60;;
3299;SDS011;1662;49.310;8.134;2023-12-20T10:32:23;6.23;;;2.93;;
3299;SDS011;1662;49.310;8.134;2023-12-20T10:34:51;4.87;;;3.17;;
3299;SDS011;1662;49.310;8.134;2023-12-20T10:37:17;3.37;;;3.03;;
3299;SDS011;1662;49.310;8.134;2023-12-20T10:39:43;6.00;;;4.20;;
3299;SDS011;1662;49.310;8.134;2023-12-20T10:42:12;2.77;;;2.60;;
3299;SDS011;1662;49.310;8.134;2023-12-20T10:44:39;6.00;;;3.27;;
3299;SDS011;1662;49.310;8.134;2023-12-20T10:47:05;4.10;;;3.37;;
3299;SDS011;1662;49.310;8.134;2023-12-20T10:49:38;5.00;;;3.43;;
3299;SDS011;1662;49.310;8.134;2023-12-20T10:52:05;5.53;;;2.90;;
3299;SDS011;1662;49.310;8.134;2023-12-20T10:54:31;3.60;;;3.37;;
3299;SDS011;1662;49.310;8.134;2023-12-20T10:56:58;9.20;;;3.20;;
3299;SDS011;1662;49.310;8.134;2023-12-20T10:59:25;4.20;;;3.40;;
3299;SDS011;1662;49.310;8.134;2023-12-20T11:01:54;3.80;;;3.50;;
3299;SDS011;1662;49.310;8.134;2023-12-20T11:04:23;5.13;;;2.90;;
3299;SDS011;1662;49.310;8.134;2023-12-20T11:07:55;2.77;;;2.50;;
3299;SDS011;1662;49.310;8.134;2023-12-20T11:10:10;5.43;;;3.20;;
3299;SDS011;1662;49.310;8.134;2023-12-20T11:12:46;5.17;;;3.23;;
3299;SDS011;1662;49.310;8.134;2023-12-20T11:15:34;3.43;;;3.13;;
3299;SDS011;1662;49.310;8.134;2023-12-20T11:18:01;3.67;;;3.30;;
3299;SDS011;1662;49.310;8.134;2023-12-20T11:20:36;4.33;;;3.77;;
3299;SDS011;1662;49.310;8.134;2023-12-20T11:23:03;7.20;;;3.60;;
3299;SDS011;1662;49.310;8.134;2023-12-20T11:25:30;4.83;;;3.77;;
3299;SDS011;1662;49.310;8.134;2023-12-20T11:28:21;5.10;;;3.57;;
3299;SDS011;1662;49.310;8.134;2023-12-20T11:30:50;5.80;;;3.77;;
3299;SDS011;1662;49.310;8.134;2023-12-20T11:33:26;9.63;;;3.67;;
3299;SDS011;1662;49.310;8.134;2023-12-20T11:35:55;8.23;;;3.13;;
3299;SDS011;1662;49.310;8.134;2023-12-20T11:38:24;7.23;;;3.13;;
3299;SDS011;1662;49.310;8.134;2023-12-20T11:40:50;8.27;;;3.00;;
3299;SDS011;1662;49.310;8.134;2023-12-20T11:43:37;5.07;;;4.00;;
3299;SDS011;1662;49.310;8.134;2023-12-20T11:46:04;3.80;;;3.17;;
3299;SDS011;1662;49.310;8.134;2023-12-20T11:48:30;4.63;;;3.30;;
3299;SDS011;1662;49.310;8.134;2023-12-20T11:50:57;5.17;;;3.43;;
3299;SDS011;1662;49.310;8.134;2023-12-20T11:53:22;3.70;;;3.40;;
3299;SDS011;1662;49.310;8.134;2023-12-20T11:55:51;4.53;;;3.27;;
3299;SDS011;1662;49.310;8.134;2023-12-20T11:58:17;6.20;;;3.87;;
3299;SDS011;1662;49.310;8.134;2023-12-20T12:00:42;7.57;;;3.60;;
3299;SDS011;1662;49.310;8.134;2023-12-20T12:03:09;4.50;;;3.13;;
3299;SDS011;1662;49.310;8.134;2023-12-20T12:05:34;6.37;;;4.20;;
3299;SDS011;1662;49.310;8.134;2023-12-20T12:08:01;4.00;;;3.40;;
3299;SDS011;1662;49.310;8.134;2023-12-20T12:10:28;5.17;;;2.70;;
3299;SDS011;1662;49.310;8.134;2023-12-20T12:12:54;6.50;;;3.10;;
3299;SDS011;1662;49.310;8.134;2023-12-20T12:15:20;6.30;;;3.20;;
3299;SDS011;1662;49.310;8.134;2023-12-20T12:17:53;4.30;;;3.10;;
3299;SDS011;1662;49.310;8.134;2023-12-20T12:20:20;7.00;;;3.00;;
3299;SDS011;1662;49.310;8.134;2023-12-20T12:22:46;10.53;;;3.20;;
3299;SDS011;1662;49.310;8.134;2023-12-20T12:25:22;3.70;;;2.90;;
3299;SDS011;1662;49.310;8.134;2023-12-20T12:27:47;5.53;;;3.30;;
3299;SDS011;1662;49.310;8.134;2023-12-20T12:30:15;4.83;;;3.40;;
3299;SDS011;1662;49.310;8.134;2023-12-20T12:32:43;4.97;;;3.30;;
3299;SDS011;1662;49.310;8.134;2023-12-20T12:35:09;3.67;;;3.37;;
3299;SDS011;1662;49.310;8.134;2023-12-20T12:37:35;4.63;;;3.00;;
3299;SDS011;1662;49.310;8.134;2023-12-20T12:40:09;7.57;;;3.63;;
3299;SDS011;1662;49.310;8.134;2023-12-20T12:42:38;3.90;;;3.60;;
3299;SDS011;1662;49.310;8.134;2023-12-20T12:45:08;3.33;;;3.03;;
3299;SDS011;1662;49.310;8.134;2023-12-20T12:47:34;3.53;;;3.10;;
3299;SDS011;1662;49.310;8.134;2023-12-20T12:50:00;5.10;;;3.67;;
3299;SDS011;1662;49.310;8.134;2023-12-20T12:52:26;5.67;;;3.37;;
3299;SDS011;1662;49.310;8.134;2023-12-20T12:54:52;6.80;;;3.00;;
3299;SDS011;1662;49.310;8.134;2023-12-20T12:57:18;6.10;;;3.90;;
3299;SDS011;1662;49.310;8.134;2023-12-20T12:59:45;6.27;;;2.80;;
3299;SDS011;1662;49.310;8.134;2023-12-20T13:02:12;8.90;;;3.27;;
3299;SDS011;1662;49.310;8.134;2023-12-20T13:04:40;7.70;;;3.80;;
3299;SDS011;1662;49.310;8.134;2023-12-20T13:07:07;8.93;;;3.67;;
3299;SDS011;1662;49.310;8.134;2023-12-20T13:09:35;6.37;;;3.43;;
3299;SDS011;1662;49.310;8.134;2023-12-20T13:12:01;15.03;;;9.37;;
3299;SDS011;1662;49.310;8.134;2023-12-20T13:14:28;9.70;;;3.87;;
3299;SDS011;1662;49.310;8.134;2023-12-20T13:16:54;4.50;;;3.40;;
3299;SDS011;1662;49.310;8.134;2023-12-20T13:19:21;11.90;;;3.37;;
3299;SDS011;1662;49.310;8.134;2023-12-20T13:21:46;6.47;;;2.70;;
3299;SDS011;1662;49.310;8.134;2023-12-20T13:24:12;11.87;;;4.30;;
3299;SDS011;1662;49.310;8.134;2023-12-20T13:26:37;6.80;;;2.90;;
3299;SDS011;1662;49.310;8.134;2023-12-20T13:29:03;5.47;;;2.90;;
3299;SDS011;1662;49.310;8.134;2023-12-20T13:31:28;9.53;;;3.80;;
3299;SDS011;1662;49.310;8.134;2023-12-20T13:33:54;5.80;;;3.20;;
3299;SDS011;1662;49.310;8.134;2023-12-20T13:36:19;8.90;;;3.20;;
3299;SDS011;1662;49.310;8.134;2023-12-20T13:38:45;4.83;;;2.50;;
3299;SDS011;1662;49.310;8.134;2023-12-20T13:41:11;4.83;;;3.03;;
3299;SDS011;1662;49.310;8.134;2023-12-20T13:43:37;2.53;;;2.43;;
3299;SDS011;1662;49.310;8.134;2023-12-20T13:46:03;9.30;;;3.03;;
3299;SDS011;1662;49.310;8.134;2023-12-20T13:48:28;5.30;;;2.97;;
3299;SDS011;1662;49.310;8.134;2023-12-20T13:50:54;3.37;;;2.73;;
3299;SDS011;1662;49.310;8.134;2023-12-20T13:53:19;6.73;;;2.63;;
3299;SDS011;1662;49.310;8.134;2023-12-20T13:55:45;7.23;;;3.00;;
3299;SDS011;1662;49.310;8.134;2023-12-20T13:58:11;2.93;;;2.73;;
3299;SDS011;1662;49.310;8.134;2023-12-20T14:00:37;4.27;;;2.83;;
3299;SDS011;1662;49.310;8.134;2023-12-20T14:03:05;3.73;;;2.30;;
3299;SDS011;1662;49.310;8.134;2023-12-20T14:05:31;8.37;;;2.43;;
3299;SDS011;1662;49.310;8.134;2023-12-20T14:07:56;6.27;;;2.47;;
3299;SDS011;1662;49.310;8.134;2023-12-20T14:10:22;5.40;;;2.50;;
3299;SDS011;1662;49.310;8.134;2023-12-20T14:12:51;5.07;;;2.47;;
3299;SDS011;1662;49.310;8.134;2023-12-20T14:15:17;7.60;;;3.07;;
3299;SDS011;1662;49.310;8.134;2023-12-20T14:17:45;5.40;;;2.77;;
3299;SDS011;1662;49.310;8.134;2023-12-20T14:20:10;4.00;;;3.10;;
3299;SDS011;1662;49.310;8.134;2023-12-20T14:22:38;3.50;;;2.43;;
3299;SDS011;1662;49.310;8.134;2023-12-20T14:25:04;10.43;;;3.30;;
3299;SDS011;1662;49.310;8.134;2023-12-20T14:27:31;6.17;;;2.70;;
3299;SDS011;1662;49.310;8.134;2023-12-20T14:29:57;4.27;;;3.20;;
3299;SDS011;1662;49.310;8.134;2023-12-20T14:32:23;4.27;;;2.93;;
3299;SDS011;1662;49.310;8.134;2023-12-20T14:34:52;4.97;;;3.00;;
3299;SDS011;1662;49.310;8.134;2023-12-20T14:37:19;3.67;;;2.43;;
3299;SDS011;1662;49.310;8.134;2023-12-20T14:39:45;3.30;;;2.60;;
3299;SDS011;1662;49.310;8.134;2023-12-20T14:42:11;5.13;;;3.20;;
3299;SDS011;1662;49.310;8.134;2023-12-20T14:44:39;7.90;;;2.60;;
3299;SDS011;1662;49.310;8.134;2023-12-20T14:47:05;3.57;;;2.37;;
3299;SDS011;1662;49.310;8.134;2023-12-20T14:49:31;2.77;;;1.97;;
3299;SDS011;1662;49.310;8.134;2023-12-20T14:51:57;4.67;;;2.23;;
3299;SDS011;1662;49.310;8.134;2023-12-20T14:54:23;5.70;;;2.90;;
3299;SDS011;1662;49.310;8.134;2023-12-20T14:56:49;2.30;;;1.97;;
3299;SDS011;1662;49.310;8.134;2023-12-20T14:59:14;5.03;;;2.57;;
3299;SDS011;1662;49.310;8.134;2023-12-20T15:01:40;6.00;;;3.00;;
3299;SDS011;1662;49.310;8.134;2023-12-20T15:04:06;7.47;;;3.50;;
3299;SDS011;1662;49.310;8.134;2023-12-20T15:06:33;8.33;;;2.60;;
3299;SDS011;1662;49.310;8.134;2023-12-20T15:08:58;4.67;;;2.80;;
3299;SDS011;1662;49.310;8.134;2023-12-20T15:11:25;15.47;;;5.90;;
3299;SDS011;1662;49.310;8.134;2023-12-20T15:13:51;4.40;;;4.00;;